sensor_id;sensor_type;location;lat;lon;timestamp;pressure;altitude;pressure_sealevel;temperature;humidity
27685;BME280;46113;50.130;8.526;2023-05-11T00:00:38;98842.75;;;8.46;73.88
27685;BME280;46113;50.130;8.526;2023-05-11T00:03:05;98854.31;;;8.43;73.52
27685;BME280;46113;50.130;8.526;2023-05-11T00:05:33;98848.91;;;8.46;73.60
27685;BME280;46113;50.130;8.526;2023-05-11T00:07:59;98851.44;;;8.48;73.65
27685;BME280;46113;50.130;8.526;2023-05-11T00:10:27;98857.72;;;8.45;73.57
27685;BME280;46113;50.130;8.526;2023-05-11T00:12:55;98854.09;;;8.48;73.70
27685;BME280;46113;50.130;8.526;2023-05-11T00:15:22;98846.97;;;8.50;73.39
27685;BME280;46113;50.130;8.526;2023-05-11T00:17:49;98852.44;;;8.45;73.40
27685;BME280;46113;50.130;8.526;2023-05-11T00:20:15;98849.47;;;8.35;73.74
27685;BME280;46113;50.130;8.526;2023-05-11T00:22:43;98852.19;;;8.34;73.44
27685;BME280;46113;50.130;8.526;2023-05-11T00:25:10;98856.22;;;8.41;73.55
27685;BME280;46113;50.130;8.526;2023-05-11T00:27:37;98842.75;;;8.46;73.52
27685;BME280;46113;50.130;8.526;2023-05-11T00:30:05;98847.13;;;8.47;73.54
27685;BME280;46113;50.130;8.526;2023-05-11T00:32:32;98840.47;;;8.40;73.58
27685;BME280;46113;50.130;8.526;2023-05-11T00:38:25;98850.22;;;8.37;73.24
27685;BME280;46113;50.130;8.526;2023-05-11T00:40:51;98846.09;;;8.33;73.14
27685;BME280;46113;50.130;8.526;2023-05-11T00:43:18;98836.47;;;8.32;73.30
27685;BME280;46113;50.130;8.526;2023-05-11T00:45:45;98845.56;;;8.27;73.37
27685;BME280;46113;50.130;8.526;2023-05-11T00:48:14;98839.44;;;8.26;73.62
27685;BME280;46113;50.130;8.526;2023-05-11T00:50:41;98844.09;;;8.21;73.39
27685;BME280;46113;50.130;8.526;2023-05-11T00:53:08;98834.44;;;8.21;73.47
27685;BME280;46113;50.130;8.526;2023-05-11T00:55:36;98841.41;;;8.22;73.62
27685;BME280;46113;50.130;8.526;2023-05-11T00:58:03;98837.75;;;8.25;73.70
27685;BME280;46113;50.130;8.526;2023-05-11T01:00:33;98833.22;;;8.27;74.07
27685;BME280;46113;50.130;8.526;2023-05-11T01:03:00;98838.25;;;8.32;73.57
27685;BME280;46113;50.130;8.526;2023-05-11T01:05:35;98837.75;;;8.25;73.29
27685;BME280;46113;50.130;8.526;2023-05-11T01:08:14;98833.41;;;8.24;73.08
27685;BME280;46113;50.130;8.526;2023-05-11T01:13:32;98834.19;;;8.10;73.79
27685;BME280;46113;50.130;8.526;2023-05-11T01:16:04;98836.88;;;8.08;73.91
27685;BME280;46113;50.130;8.526;2023-05-11T01:18:37;98841.91;;;8.13;73.56
27685;BME280;46113;50.130;8.526;2023-05-11T01:21:10;98829.88;;;8.07;73.79
27685;BME280;46113;50.130;8.526;2023-05-11T01:29:43;98824.84;;;7.87;73.02
27685;BME280;46113;50.130;8.526;2023-05-11T01:32:25;98834.97;;;7.78;73.22
27685;BME280;46113;50.130;8.526;2023-05-11T01:38:00;98842.06;;;7.76;73.42
27685;BME280;46113;50.130;8.526;2023-05-11T01:40:32;98832.25;;;7.80;73.61
27685;BME280;46113;50.130;8.526;2023-05-11T01:43:07;98840.31;;;7.77;73.74
27685;BME280;46113;50.130;8.526;2023-05-11T01:45:39;98832.34;;;7.78;74.13
27685;BME280;46113;50.130;8.526;2023-05-11T01:48:10;98836.13;;;7.73;73.75
27685;BME280;46113;50.130;8.526;2023-05-11T01:50:40;98837.06;;;7.71;73.54
27685;BME280;46113;50.130;8.526;2023-05-11T01:53:07;98838.94;;;7.69;73.33
27685;BME280;46113;50.130;8.526;2023-05-11T01:55:36;98842.41;;;7.70;73.33
27685;BME280;46113;50.130;8.526;2023-05-11T01:58:07;98836.38;;;7.68;73.39
27685;BME280;46113;50.130;8.526;2023-05-11T02:00:36;98839.84;;;7.68;73.31
27685;BME280;46113;50.130;8.526;2023-05-11T02:03:05;98841.66;;;7.68;73.25
27685;BME280;46113;50.130;8.526;2023-05-11T02:05:33;98848.75;;;7.66;72.78
27685;BME280;46113;50.130;8.526;2023-05-11T02:08:04;98847.41;;;7.58;73.48
27685;BME280;46113;50.130;8.526;2023-05-11T02:10:33;98851.97;;;7.55;74.12
27685;BME280;46113;50.130;8.526;2023-05-11T02:13:03;98845.53;;;7.61;74.01
27685;BME280;46113;50.130;8.526;2023-05-11T02:15:32;98848.94;;;7.63;73.54
27685;BME280;46113;50.130;8.526;2023-05-11T02:18:00;98848.53;;;7.70;73.13
27685;BME280;46113;50.130;8.526;2023-05-11T02:20:27;98851.72;;;7.60;73.05
27685;BME280;46113;50.130;8.526;2023-05-11T02:22:56;98852.66;;;7.58;72.97
27685;BME280;46113;50.130;8.526;2023-05-11T02:25:24;98853.50;;;7.59;72.49
27685;BME280;46113;50.130;8.526;2023-05-11T02:27:51;98850.34;;;7.52;73.33
27685;BME280;46113;50.130;8.526;2023-05-11T02:30:17;98845.84;;;7.54;72.92
27685;BME280;46113;50.130;8.526;2023-05-11T02:32:50;98844.78;;;7.41;73.12
27685;BME280;46113;50.130;8.526;2023-05-11T02:35:28;98854.28;;;7.43;72.98
27685;BME280;46113;50.130;8.526;2023-05-11T02:37:59;98852.91;;;7.36;72.88
27685;BME280;46113;50.130;8.526;2023-05-11T02:40:35;98848.81;;;7.30;73.10
27685;BME280;46113;50.130;8.526;2023-05-11T02:43:11;98847.72;;;7.35;73.09
27685;BME280;46113;50.130;8.526;2023-05-11T02:45:45;98850.22;;;7.38;73.01
27685;BME280;46113;50.130;8.526;2023-05-11T02:48:26;98850.03;;;7.41;73.05
27685;BME280;46113;50.130;8.526;2023-05-11T02:50:55;98851.03;;;7.38;73.20
27685;BME280;46113;50.130;8.526;2023-05-11T02:53:30;98846.78;;;7.36;73.05
27685;BME280;46113;50.130;8.526;2023-05-11T02:55:59;98851.22;;;7.35;73.27
27685;BME280;46113;50.130;8.526;2023-05-11T02:58:28;98848.50;;;7.37;73.61
27685;BME280;46113;50.130;8.526;2023-05-11T03:01:11;98852.44;;;7.28;73.55
27685;BME280;46113;50.130;8.526;2023-05-11T03:03:39;98849.25;;;7.21;73.38
27685;BME280;46113;50.130;8.526;2023-05-11T03:06:06;98845.34;;;7.30;73.20
27685;BME280;46113;50.130;8.526;2023-05-11T03:08:33;98843.41;;;7.34;73.03
27685;BME280;46113;50.130;8.526;2023-05-11T03:11:01;98846.88;;;7.34;73.02
27685;BME280;46113;50.130;8.526;2023-05-11T03:13:30;98837.25;;;7.33;72.95
27685;BME280;46113;50.130;8.526;2023-05-11T03:16:00;98840.69;;;7.35;72.67
27685;BME280;46113;50.130;8.526;2023-05-11T03:18:30;98844.78;;;7.23;73.25
27685;BME280;46113;50.130;8.526;2023-05-11T03:20:59;98838.44;;;7.27;73.18
27685;BME280;46113;50.130;8.526;2023-05-11T03:23:27;98842.63;;;7.14;73.08
27685;BME280;46113;50.130;8.526;2023-05-11T03:25:56;98845.50;;;7.09;73.65
27685;BME280;46113;50.130;8.526;2023-05-11T03:28:24;98844.50;;;7.12;73.31
27685;BME280;46113;50.130;8.526;2023-05-11T03:30:59;98844.31;;;7.15;73.01
27685;BME280;46113;50.130;8.526;2023-05-11T03:33:25;98839.38;;;7.09;73.04
27685;BME280;46113;50.130;8.526;2023-05-11T03:35:53;98843.56;;;7.13;72.78
27685;BME280;46113;50.130;8.526;2023-05-11T03:38:22;98839.50;;;7.05;73.20
27685;BME280;46113;50.130;8.526;2023-05-11T03:40:52;98836.50;;;7.13;73.10
27685;BME280;46113;50.130;8.526;2023-05-11T03:43:20;98827.22;;;7.06;72.95
27685;BME280;46113;50.130;8.526;2023-05-11T03:45:52;98839.66;;;7.02;72.68
27685;BME280;46113;50.130;8.526;2023-05-11T03:48:21;98839.66;;;7.02;73.13
27685;BME280;46113;50.130;8.526;2023-05-11T03:50:50;98840.44;;;7.04;72.24
27685;BME280;46113;50.130;8.526;2023-05-11T03:53:17;98838.69;;;7.05;72.66
27685;BME280;46113;50.130;8.526;2023-05-11T03:55:45;98840.47;;;7.03;72.72
27685;BME280;46113;50.130;8.526;2023-05-11T03:58:11;98843.06;;;7.04;72.41
27685;BME280;46113;50.130;8.526;2023-05-11T04:00:39;98837.81;;;7.04;72.89
27685;BME280;46113;50.130;8.526;2023-05-11T04:03:10;98840.31;;;7.08;72.93
27685;BME280;46113;50.130;8.526;2023-05-11T04:05:38;98836.09;;;7.03;72.88
27685;BME280;46113;50.130;8.526;2023-05-11T04:08:08;98843.63;;;7.11;72.60
27685;BME280;46113;50.130;8.526;2023-05-11T04:10:35;98843.47;;;7.14;72.70
27685;BME280;46113;50.130;8.526;2023-05-11T04:13:04;98841.53;;;7.18;72.85
27685;BME280;46113;50.130;8.526;2023-05-11T04:15:30;98843.25;;;7.19;72.81
27685;BME280;46113;50.130;8.526;2023-05-11T04:17:57;98840.47;;;7.22;72.81
27685;BME280;46113;50.130;8.526;2023-05-11T04:20:24;98842.63;;;7.31;72.83
27685;BME280;46113;50.130;8.526;2023-05-11T04:22:51;98850.22;;;7.38;72.80
27685;BME280;46113;50.130;8.526;2023-05-11T04:25:17;98842.94;;;7.43;72.71
27685;BME280;46113;50.130;8.526;2023-05-11T04:27:44;98844.91;;;7.55;72.86
27685;BME280;46113;50.130;8.526;2023-05-11T04:30:11;98844.56;;;7.79;71.99
27685;BME280;46113;50.130;8.526;2023-05-11T04:32:38;98840.06;;;7.81;71.76
27685;BME280;46113;50.130;8.526;2023-05-11T04:35:05;98843.91;;;7.92;71.40
27685;BME280;46113;50.130;8.526;2023-05-11T04:37:35;98842.84;;;8.12;71.51
27685;BME280;46113;50.130;8.526;2023-05-11T04:40:04;98844.78;;;8.08;70.31
27685;BME280;46113;50.130;8.526;2023-05-11T04:42:37;98849.63;;;8.00;70.40
27685;BME280;46113;50.130;8.526;2023-05-11T04:45:08;98855.13;;;7.95;71.21
27685;BME280;46113;50.130;8.526;2023-05-11T04:47:34;98850.91;;;7.75;71.91
27685;BME280;46113;50.130;8.526;2023-05-11T04:50:01;98850.19;;;7.89;71.30
27685;BME280;46113;50.130;8.526;2023-05-11T04:52:33;98848.59;;;8.03;71.01
27685;BME280;46113;50.130;8.526;2023-05-11T04:55:00;98857.66;;;8.31;70.21
27685;BME280;46113;50.130;8.526;2023-05-11T04:57:27;98856.19;;;8.25;69.94
27685;BME280;46113;50.130;8.526;2023-05-11T04:59:54;98851.38;;;8.49;69.51
27685;BME280;46113;50.130;8.526;2023-05-11T05:02:21;98857.06;;;8.58;69.69
27685;BME280;46113;50.130;8.526;2023-05-11T05:04:48;98860.72;;;8.55;69.35
27685;BME280;46113;50.130;8.526;2023-05-11T05:07:14;98865.41;;;8.50;69.53
27685;BME280;46113;50.130;8.526;2023-05-11T05:09:41;98856.81;;;8.62;69.68
27685;BME280;46113;50.130;8.526;2023-05-11T05:12:11;98863.38;;;8.55;70.00
27685;BME280;46113;50.130;8.526;2023-05-11T05:14:37;98866.00;;;8.55;69.40
27685;BME280;46113;50.130;8.526;2023-05-11T05:17:04;98861.56;;;8.72;69.26
27685;BME280;46113;50.130;8.526;2023-05-11T05:19:32;98870.22;;;8.90;68.28
27685;BME280;46113;50.130;8.526;2023-05-11T05:21:59;98872.56;;;9.11;68.33
27685;BME280;46113;50.130;8.526;2023-05-11T05:24:25;98871.44;;;8.84;68.38
27685;BME280;46113;50.130;8.526;2023-05-11T05:26:52;98873.44;;;8.95;68.36
27685;BME280;46113;50.130;8.526;2023-05-11T05:29:19;98874.88;;;9.01;68.52
27685;BME280;46113;50.130;8.526;2023-05-11T05:31:47;98864.19;;;9.19;68.30
27685;BME280;46113;50.130;8.526;2023-05-11T05:34:14;98877.28;;;8.89;69.23
27685;BME280;46113;50.130;8.526;2023-05-11T05:36:42;98879.63;;;8.63;70.04
27685;BME280;46113;50.130;8.526;2023-05-11T05:39:09;98874.75;;;8.72;70.77
27685;BME280;46113;50.130;8.526;2023-05-11T05:41:38;98881.03;;;8.69;70.99
27685;BME280;46113;50.130;8.526;2023-05-11T05:44:08;98885.28;;;8.88;69.97
27685;BME280;46113;50.130;8.526;2023-05-11T05:46:36;98882.66;;;9.19;69.38
27685;BME280;46113;50.130;8.526;2023-05-11T05:49:02;98886.34;;;9.47;68.21
27685;BME280;46113;50.130;8.526;2023-05-11T05:51:30;98881.56;;;9.23;68.65
27685;BME280;46113;50.130;8.526;2023-05-11T05:53:57;98878.13;;;9.51;68.47
27685;BME280;46113;50.130;8.526;2023-05-11T05:56:23;98882.19;;;9.57;68.35
27685;BME280;46113;50.130;8.526;2023-05-11T05:58:50;98885.53;;;9.30;68.44
27685;BME280;46113;50.130;8.526;2023-05-11T06:01:17;98883.97;;;9.56;68.53
27685;BME280;46113;50.130;8.526;2023-05-11T06:03:44;98890.38;;;9.38;68.85
27685;BME280;46113;50.130;8.526;2023-05-11T06:06:12;98890.47;;;9.36;69.05
27685;BME280;46113;50.130;8.526;2023-05-11T06:08:38;98893.91;;;9.67;67.57
27685;BME280;46113;50.130;8.526;2023-05-11T06:11:05;98891.41;;;9.80;67.12
27685;BME280;46113;50.130;8.526;2023-05-11T06:13:32;98892.00;;;10.00;66.35
27685;BME280;46113;50.130;8.526;2023-05-11T06:15:58;98886.06;;;9.97;66.07
27685;BME280;46113;50.130;8.526;2023-05-11T06:18:31;98887.25;;;9.91;66.30
27685;BME280;46113;50.130;8.526;2023-05-11T06:21:00;98887.16;;;9.78;66.31
27685;BME280;46113;50.130;8.526;2023-05-11T06:23:29;98890.22;;;10.01;65.75
27685;BME280;46113;50.130;8.526;2023-05-11T06:25:56;98887.91;;;9.94;65.81
27685;BME280;46113;50.130;8.526;2023-05-11T06:28:24;98890.78;;;10.20;65.12
27685;BME280;46113;50.130;8.526;2023-05-11T06:30:56;98891.50;;;10.08;66.40
27685;BME280;46113;50.130;8.526;2023-05-11T06:33:29;98887.53;;;10.30;65.66
27685;BME280;46113;50.130;8.526;2023-05-11T06:35:57;98883.81;;;10.47;64.74
27685;BME280;46113;50.130;8.526;2023-05-11T06:38:52;98880.88;;;10.66;64.96
27685;BME280;46113;50.130;8.526;2023-05-11T06:41:19;98881.91;;;10.64;64.04
27685;BME280;46113;50.130;8.526;2023-05-11T06:43:46;98872.41;;;10.46;64.76
27685;BME280;46113;50.130;8.526;2023-05-11T06:46:19;98881.47;;;10.57;65.07
27685;BME280;46113;50.130;8.526;2023-05-11T06:48:46;98877.91;;;10.71;63.91
27685;BME280;46113;50.130;8.526;2023-05-11T06:51:13;98876.88;;;10.73;63.95
27685;BME280;46113;50.130;8.526;2023-05-11T06:53:41;98882.63;;;10.80;63.87
27685;BME280;46113;50.130;8.526;2023-05-11T06:56:07;98878.19;;;10.39;65.87
27685;BME280;46113;50.130;8.526;2023-05-11T06:58:34;98887.25;;;9.91;67.53
27685;BME280;46113;50.130;8.526;2023-05-11T07:01:01;98886.72;;;10.15;67.65
27685;BME280;46113;50.130;8.526;2023-05-11T07:03:30;98879.63;;;10.15;66.56
27685;BME280;46113;50.130;8.526;2023-05-11T07:05:57;98877.88;;;10.43;65.91
27685;BME280;46113;50.130;8.526;2023-05-11T07:08:24;98882.41;;;10.56;65.73
27685;BME280;46113;50.130;8.526;2023-05-11T07:10:51;98878.03;;;10.55;64.17
27685;BME280;46113;50.130;8.526;2023-05-11T07:13:18;98888.56;;;10.42;65.55
27685;BME280;46113;50.130;8.526;2023-05-11T07:15:45;98882.34;;;10.70;65.31
27685;BME280;46113;50.130;8.526;2023-05-11T07:18:12;98885.91;;;10.84;65.46
27685;BME280;46113;50.130;8.526;2023-05-11T07:20:38;98888.66;;;11.10;65.39
27685;BME280;46113;50.130;8.526;2023-05-11T07:23:06;98888.44;;;11.40;64.50
27685;BME280;46113;50.130;8.526;2023-05-11T07:25:33;98895.56;;;11.12;63.54
27685;BME280;46113;50.130;8.526;2023-05-11T07:28:00;98890.50;;;11.22;63.27
27685;BME280;46113;50.130;8.526;2023-05-11T07:30:26;98886.31;;;11.33;62.23
27685;BME280;46113;50.130;8.526;2023-05-11T07:32:53;98892.47;;;11.06;62.17
27685;BME280;46113;50.130;8.526;2023-05-11T07:35:20;98890.13;;;10.59;63.47
27685;BME280;46113;50.130;8.526;2023-05-11T07:37:49;98895.38;;;10.73;64.16
27685;BME280;46113;50.130;8.526;2023-05-11T07:40:16;98889.06;;;11.04;62.26
27685;BME280;46113;50.130;8.526;2023-05-11T07:42:43;98895.84;;;10.95;63.31
27685;BME280;46113;50.130;8.526;2023-05-11T07:45:10;98896.09;;;10.90;62.72
27685;BME280;46113;50.130;8.526;2023-05-11T07:47:36;98897.56;;;10.67;63.39
27685;BME280;46113;50.130;8.526;2023-05-11T07:50:04;98893.63;;;10.59;64.13
27685;BME280;46113;50.130;8.526;2023-05-11T07:52:30;98892.06;;;10.84;63.95
27685;BME280;46113;50.130;8.526;2023-05-11T07:54:58;98894.97;;;10.94;63.87
27685;BME280;46113;50.130;8.526;2023-05-11T07:57:24;98895.97;;;10.64;65.08
27685;BME280;46113;50.130;8.526;2023-05-11T07:59:51;98892.03;;;10.57;63.55
27685;BME280;46113;50.130;8.526;2023-05-11T08:02:18;98892.44;;;10.78;64.49
27685;BME280;46113;50.130;8.526;2023-05-11T08:04:45;98894.75;;;10.70;64.10
27685;BME280;46113;50.130;8.526;2023-05-11T08:07:12;98890.50;;;10.67;64.23
27685;BME280;46113;50.130;8.526;2023-05-11T08:09:39;98897.63;;;10.38;64.89
27685;BME280;46113;50.130;8.526;2023-05-11T08:12:06;98895.13;;;10.91;63.52
27685;BME280;46113;50.130;8.526;2023-05-11T08:14:33;98893.16;;;10.53;64.44
27685;BME280;46113;50.130;8.526;2023-05-11T08:17:00;98895.84;;;10.38;64.69
27685;BME280;46113;50.130;8.526;2023-05-11T08:19:26;98894.06;;;10.24;65.71
27685;BME280;46113;50.130;8.526;2023-05-11T08:21:53;98893.56;;;10.46;65.46
27685;BME280;46113;50.130;8.526;2023-05-11T08:24:20;98897.75;;;10.36;65.29
27685;BME280;46113;50.130;8.526;2023-05-11T08:26:47;98889.75;;;10.51;64.80
27685;BME280;46113;50.130;8.526;2023-05-11T08:29:13;98896.53;;;10.69;64.84
27685;BME280;46113;50.130;8.526;2023-05-11T08:31:40;98896.47;;;10.84;64.30
27685;BME280;46113;50.130;8.526;2023-05-11T08:34:07;98900.25;;;10.52;64.68
27685;BME280;46113;50.130;8.526;2023-05-11T08:36:44;98895.44;;;10.86;64.39
27685;BME280;46113;50.130;8.526;2023-05-11T08:39:12;98897.38;;;11.12;63.89
27685;BME280;46113;50.130;8.526;2023-05-11T08:41:39;98899.09;;;11.26;63.36
27685;BME280;46113;50.130;8.526;2023-05-11T08:44:05;98901.38;;;10.90;64.38
27685;BME280;46113;50.130;8.526;2023-05-11T08:46:34;98894.47;;;11.02;64.46
27685;BME280;46113;50.130;8.526;2023-05-11T08:49:01;98910.25;;;11.04;64.82
27685;BME280;46113;50.130;8.526;2023-05-11T08:51:28;98904.41;;;10.98;64.09
27685;BME280;46113;50.130;8.526;2023-05-11T08:53:55;98910.00;;;10.22;65.72
27685;BME280;46113;50.130;8.526;2023-05-11T08:56:25;98906.94;;;10.58;65.78
27685;BME280;46113;50.130;8.526;2023-05-11T08:58:53;98907.97;;;10.70;66.07
27685;BME280;46113;50.130;8.526;2023-05-11T09:01:22;98901.88;;;10.82;65.08
27685;BME280;46113;50.130;8.526;2023-05-11T09:03:50;98911.69;;;10.38;66.03
27685;BME280;46113;50.130;8.526;2023-05-11T09:06:18;98911.19;;;10.60;66.83
27685;BME280;46113;50.130;8.526;2023-05-11T09:08:46;98911.88;;;11.19;64.98
27685;BME280;46113;50.130;8.526;2023-05-11T09:11:13;98900.63;;;11.43;64.74
27685;BME280;46113;50.130;8.526;2023-05-11T09:13:40;98904.91;;;11.18;64.27
27685;BME280;46113;50.130;8.526;2023-05-11T09:16:07;98911.41;;;10.85;65.05
27685;BME280;46113;50.130;8.526;2023-05-11T09:18:58;98907.84;;;11.13;63.49
27685;BME280;46113;50.130;8.526;2023-05-11T09:21:25;98904.97;;;11.57;63.46
27685;BME280;46113;50.130;8.526;2023-05-11T09:23:54;98914.31;;;11.63;62.73
27685;BME280;46113;50.130;8.526;2023-05-11T09:26:21;98916.03;;;11.77;61.91
27685;BME280;46113;50.130;8.526;2023-05-11T09:28:56;98904.34;;;11.53;61.50
27685;BME280;46113;50.130;8.526;2023-05-11T09:31:45;98901.31;;;11.32;63.22
27685;BME280;46113;50.130;8.526;2023-05-11T09:34:13;98909.22;;;11.73;63.78
27685;BME280;46113;50.130;8.526;2023-05-11T09:36:50;98905.94;;;11.82;62.84
27685;BME280;46113;50.130;8.526;2023-05-11T09:39:27;98913.78;;;11.71;62.67
27685;BME280;46113;50.130;8.526;2023-05-11T09:42:13;98910.34;;;11.43;63.73
27685;BME280;46113;50.130;8.526;2023-05-11T09:44:41;98903.59;;;11.77;62.57
27685;BME280;46113;50.130;8.526;2023-05-11T09:49:42;98905.44;;;12.16;62.54
27685;BME280;46113;50.130;8.526;2023-05-11T09:52:14;98902.66;;;11.91;61.36
27685;BME280;46113;50.130;8.526;2023-05-11T09:54:46;98909.97;;;11.75;63.63
27685;BME280;46113;50.130;8.526;2023-05-11T09:59:50;98912.13;;;11.83;62.73
27685;BME280;46113;50.130;8.526;2023-05-11T10:02:26;98915.59;;;11.83;63.79
27685;BME280;46113;50.130;8.526;2023-05-11T10:04:59;98906.81;;;11.96;63.56
27685;BME280;46113;50.130;8.526;2023-05-11T10:11:45;98909.22;;;11.86;62.81
27685;BME280;46113;50.130;8.526;2023-05-11T10:14:12;98907.97;;;11.65;63.98
27685;BME280;46113;50.130;8.526;2023-05-11T10:16:43;98906.78;;;11.70;65.40
27685;BME280;46113;50.130;8.526;2023-05-11T10:19:10;98908.25;;;12.00;64.41
27685;BME280;46113;50.130;8.526;2023-05-11T10:21:38;98906.44;;;12.39;63.98
27685;BME280;46113;50.130;8.526;2023-05-11T10:24:05;98899.34;;;12.40;64.60
27685;BME280;46113;50.130;8.526;2023-05-11T10:26:33;98900.09;;;12.29;65.36
27685;BME280;46113;50.130;8.526;2023-05-11T10:29:00;98894.66;;;12.43;64.78
27685;BME280;46113;50.130;8.526;2023-05-11T10:31:28;98898.78;;;12.60;63.66
27685;BME280;46113;50.130;8.526;2023-05-11T10:33:56;98896.94;;;12.74;62.60
27685;BME280;46113;50.130;8.526;2023-05-11T10:36:23;98901.16;;;12.39;62.91
27685;BME280;46113;50.130;8.526;2023-05-11T10:38:50;98892.91;;;12.31;63.81
27685;BME280;46113;50.130;8.526;2023-05-11T10:41:28;98895.78;;;11.63;63.86
27685;BME280;46113;50.130;8.526;2023-05-11T10:46:59;98892.84;;;12.57;63.14
27685;BME280;46113;50.130;8.526;2023-05-11T10:57:40;98890.00;;;12.47;64.56
27685;BME280;46113;50.130;8.526;2023-05-11T11:02:57;98892.19;;;12.66;64.12
27685;BME280;46113;50.130;8.526;2023-05-11T11:05:34;98895.97;;;12.99;63.33
27685;BME280;46113;50.130;8.526;2023-05-11T11:08:04;98888.56;;;12.92;63.15
27685;BME280;46113;50.130;8.526;2023-05-11T11:10:41;98897.09;;;12.84;63.01
27685;BME280;46113;50.130;8.526;2023-05-11T11:13:13;98887.63;;;13.17;63.41
27685;BME280;46113;50.130;8.526;2023-05-11T11:20:55;98887.69;;;12.91;63.65
27685;BME280;46113;50.130;8.526;2023-05-11T11:26:11;98883.63;;;13.11;62.30
27685;BME280;46113;50.130;8.526;2023-05-11T11:31:33;98882.88;;;12.48;64.76
27685;BME280;46113;50.130;8.526;2023-05-11T11:44:36;98881.72;;;12.52;64.17
27685;BME280;46113;50.130;8.526;2023-05-11T11:47:20;98881.66;;;12.27;64.59
27685;BME280;46113;50.130;8.526;2023-05-11T11:49:52;98887.94;;;12.64;65.88
27685;BME280;46113;50.130;8.526;2023-05-11T11:54:53;98883.69;;;12.24;63.96
27685;BME280;46113;50.130;8.526;2023-05-11T11:59:59;98893.84;;;12.30;64.62
27685;BME280;46113;50.130;8.526;2023-05-11T12:02:27;98888.16;;;12.60;63.90
27685;BME280;46113;50.130;8.526;2023-05-11T12:04:56;98890.75;;;12.73;63.29
27685;BME280;46113;50.130;8.526;2023-05-11T12:07:24;98885.41;;;12.86;64.25
27685;BME280;46113;50.130;8.526;2023-05-11T12:09:52;98883.72;;;12.85;63.39
27685;BME280;46113;50.130;8.526;2023-05-11T12:12:19;98886.06;;;12.77;64.24
27685;BME280;46113;50.130;8.526;2023-05-11T12:14:47;98885.22;;;13.25;62.27
27685;BME280;46113;50.130;8.526;2023-05-11T12:17:25;98884.94;;;13.42;61.22
27685;BME280;46113;50.130;8.526;2023-05-11T12:20:11;98883.47;;;13.49;61.05
27685;BME280;46113;50.130;8.526;2023-05-11T12:22:39;98881.09;;;12.97;62.28
27685;BME280;46113;50.130;8.526;2023-05-11T12:25:06;98886.56;;;13.20;61.90
27685;BME280;46113;50.130;8.526;2023-05-11T12:27:33;98876.56;;;13.35;61.74
27685;BME280;46113;50.130;8.526;2023-05-11T12:30:00;98883.53;;;13.60;61.51
27685;BME280;46113;50.130;8.526;2023-05-11T12:32:28;98881.31;;;13.54;60.42
27685;BME280;46113;50.130;8.526;2023-05-11T12:34:57;98881.50;;;13.75;60.41
27685;BME280;46113;50.130;8.526;2023-05-11T12:37:24;98880.78;;;13.73;60.77
27685;BME280;46113;50.130;8.526;2023-05-11T12:39:55;98872.53;;;13.76;60.78
27685;BME280;46113;50.130;8.526;2023-05-11T12:42:22;98868.53;;;13.59;61.34
27685;BME280;46113;50.130;8.526;2023-05-11T12:44:49;98871.69;;;13.64;60.58
27685;BME280;46113;50.130;8.526;2023-05-11T12:47:16;98867.59;;;13.83;59.79
27685;BME280;46113;50.130;8.526;2023-05-11T12:49:43;98869.34;;;14.07;60.74
27685;BME280;46113;50.130;8.526;2023-05-11T12:52:12;98861.44;;;13.94;60.51
27685;BME280;46113;50.130;8.526;2023-05-11T12:54:40;98866.41;;;13.87;59.77
27685;BME280;46113;50.130;8.526;2023-05-11T12:57:23;98866.50;;;13.63;59.28
27685;BME280;46113;50.130;8.526;2023-05-11T13:02:33;98858.53;;;13.86;59.86
27685;BME280;46113;50.130;8.526;2023-05-11T13:05:11;98858.41;;;13.87;60.19
27685;BME280;46113;50.130;8.526;2023-05-11T13:07:38;98853.63;;;14.04;59.71
27685;BME280;46113;50.130;8.526;2023-05-11T13:10:06;98849.88;;;14.07;59.27
27685;BME280;46113;50.130;8.526;2023-05-11T13:12:35;98855.19;;;14.29;59.88
27685;BME280;46113;50.130;8.526;2023-05-11T13:15:06;98851.53;;;14.30;59.73
27685;BME280;46113;50.130;8.526;2023-05-11T13:17:36;98845.16;;;14.10;60.18
27685;BME280;46113;50.130;8.526;2023-05-11T13:20:23;98836.47;;;14.64;59.16
27685;BME280;46113;50.130;8.526;2023-05-11T13:23:02;98838.25;;;13.85;57.82
27685;BME280;46113;50.130;8.526;2023-05-11T13:25:29;98833.22;;;13.34;60.27
27685;BME280;46113;50.130;8.526;2023-05-11T13:27:56;98830.97;;;13.64;60.49
27685;BME280;46113;50.130;8.526;2023-05-11T13:30:23;98833.66;;;13.98;60.36
27685;BME280;46113;50.130;8.526;2023-05-11T13:32:49;98837.28;;;14.31;60.36
27685;BME280;46113;50.130;8.526;2023-05-11T13:35:16;98823.72;;;14.00;60.10
27685;BME280;46113;50.130;8.526;2023-05-11T13:37:44;98826.38;;;13.77;59.01
27685;BME280;46113;50.130;8.526;2023-05-11T13:40:12;98829.66;;;13.92;59.79
27685;BME280;46113;50.130;8.526;2023-05-11T13:42:39;98829.03;;;13.43;60.98
27685;BME280;46113;50.130;8.526;2023-05-11T13:45:07;98823.72;;;14.00;60.69
27685;BME280;46113;50.130;8.526;2023-05-11T13:47:34;98831.84;;;13.87;60.35
27685;BME280;46113;50.130;8.526;2023-05-11T13:50:01;98832.81;;;13.98;59.43
27685;BME280;46113;50.130;8.526;2023-05-11T13:52:29;98823.41;;;14.16;58.98
27685;BME280;46113;50.130;8.526;2023-05-11T13:54:55;98826.03;;;13.82;59.15
27685;BME280;46113;50.130;8.526;2023-05-11T13:57:25;98828.09;;;13.90;59.90
27685;BME280;46113;50.130;8.526;2023-05-11T13:59:52;98821.44;;;13.84;58.76
27685;BME280;46113;50.130;8.526;2023-05-11T14:02:19;98824.47;;;13.91;59.44
27685;BME280;46113;50.130;8.526;2023-05-11T14:04:48;98822.16;;;13.98;59.65
27685;BME280;46113;50.130;8.526;2023-05-11T14:07:14;98821.38;;;13.38;61.68
27685;BME280;46113;50.130;8.526;2023-05-11T14:09:41;98813.50;;;13.14;61.77
27685;BME280;46113;50.130;8.526;2023-05-11T14:12:13;98815.16;;;13.51;62.68
27685;BME280;46113;50.130;8.526;2023-05-11T14:14:39;98812.97;;;13.68;61.01
27685;BME280;46113;50.130;8.526;2023-05-11T14:20:23;98814.84;;;13.20;61.26
27685;BME280;46113;50.130;8.526;2023-05-11T14:22:50;98811.53;;;12.80;63.02
27685;BME280;46113;50.130;8.526;2023-05-11T14:25:17;98821.38;;;12.67;63.71